AirNav   Duncan Aviation - Near you to keep you flying
 
 1196 users online  

02A Chilton County Airport
Clanton, Alabama, USA

GOING TO CLANTON?


FAA INFORMATION EFFECTIVE 26 JANUARY 2023

Location

FAA Identifier: 02A
Lat/Long: 32-51-01.7441N 086-36-41.1569W
32-51.029068N 086-36.685948W
32.8504845,-86.6114325
(estimated)
Elevation: 584.7 ft. / 178.2 m (surveyed)
Variation: 04W (2020)
From city: 1 mile E of CLANTON, AL
Time zone: UTC -6 (UTC -5 during Daylight Saving Time)
Zip code: 35045

Airport Operations

Airport use: Open to the public
Activation date: 03/1940
Control tower: no
ARTCC: ATLANTA CENTER
FSS: ANNISTON FLIGHT SERVICE STATION
NOTAMs facility: ANB (NOTAM-D service available)
Attendance: MON-FRI 0800-1700
AFT HRS 205-755-8913
Wind indicator: lighted
Segmented circle: yes
Lights: ACTVT MIRL RWY 08/26 - CTAF.
Beacon: white-green (lighted land airport)
Operates sunset to sunrise.

Airport Communications

CTAF/UNICOM: 122.8
MONTGOMERY APPROACH: 121.2
MONTGOMERY DEPARTURE: 121.2
  • APCH/DEP SVC PRVDD BY ATLANTA ARTCC ON FREQS 132.25/263.025 (UNIONTOWN RCAG) WHEN MONTGOMERY APCH CTL CLSD.

Nearby radio navigation aids

VOR radial/distance  VOR name  Freq  Var
OKWr126/39.6BROOKWOOD VORTAC111.0000E

Airport Services

Fuel available: 100LL JET-A
100LL:SELF SERVE FUEL AVBL H24 N SIDE OF ARPT.
A:JET-A SELF SERVE NORTH SIDE OF FIELD 24/7.
Parking: hangars and tiedowns
Airframe service: MAJOR
Powerplant service: MAJOR
Bottled oxygen: NONE
Bulk oxygen: NONE

Runway Information

Runway 8/26

Dimensions: 4007 x 100 ft. / 1221 x 30 m
Surface: asphalt, in good condition
Weight bearing capacity: 
Single wheel: 16.0
Runway edge lights: medium intensity
Runway edge markings: MARKINGS POOR DUE TO FADING AND ALGAE GROWTH
RUNWAY 8  RUNWAY 26
Latitude: 32-50.962385N32-51.095750N
Longitude: 086-37.069240W086-36.302655W
Elevation: 584.7 ft.566.6 ft.
Traffic pattern: leftleft
Runway heading: 082 magnetic, 078 true262 magnetic, 258 true
Markings: nonprecision, in poor conditionnonprecision, in poor condition
Visual slope indicator: 2-light PAPI on left (4.00 degrees glide path)2-light PAPI on left (4.00 degrees glide path)
Runway end identifier lights: yesyes
Touchdown point: yes, no lightsyes, no lights
Obstructions: 14 ft. tree, 325 ft. from runway, 141 ft. right of centerline, 8:1 slope to clear46 ft. gnd, 1137 ft. from runway, 20:1 slope to clear

Airport Ownership and Management from official FAA records

Ownership: Publicly-owned
Owner: CHILTON COUNTY AIRPORT AUTHORITY
700 AIRPORT ROAD
CLANTON, AL 35045
Phone 205-280-3800
Manager: CHILTON COUNTY AIRPORT AUTHORITY
700 AIRPORT ROAD
CLANTON, AL 35045
Phone 205-280-3800

Airport Operational Statistics

Aircraft based on the field: 23
Single engine airplanes: 20
Multi engine airplanes: 2
Helicopters: 1
    
Aircraft operations: avg 66/day *
95% transient general aviation
5% local general aviation
* for 12-month period ending 30 April 2019

Additional Remarks

FOR CD CTC MONTGOMERY APCH AT 334-284-4575, WHEN APCH CLSD FOR CD CTC ATLANTA ARTCC AT 770-210-7692.

Instrument Procedures

NOTE: All procedures below are presented as PDF files. If you need a reader for these files, you should download the free Adobe Reader.

NOT FOR NAVIGATION. Please procure official charts for flight.
FAA instrument procedures published for use from 26 January 2023 at 0901Z to 23 February 2023 at 0900z.

 
IAPs - Instrument Approach Procedures
RNAV (GPS) RWY 08   download
RNAV (GPS) RWY 26   download
NOTE: Special Take-Off Minimums/Departure Procedures apply   download (302KB)

Other nearby airports with instrument procedures:

KEET - Shelby County Airport (21 nm NW)
08A - Wetumpka Municipal Airport (24 nm SE)
KSCD - Merkel Field Sylacauga Municipal Airport (25 nm NE)
0A8 - Bibb County Airport (25 nm W)
1A9 - Prattville Airport - Grouby Field (25 nm S)
 
Loc | Ops | Rwys | IFR | FBO | Links
Com | Nav | Svcs | Stats | Notes
Area around 02A (Chilton County Airport)
 
Road maps at: MapQuest Bing Google
 
Aerial photo
WARNING: Photo may not be current or correct
Aerial photo of 02A (Chilton County Airport)
Photo by Gary Chambers
Photo taken 25-Feb-2005
looking west

Do you have a better or more recent aerial photo of Chilton County Airport that you would like to share? If so, please send us your photo.

 
Sectional chart

 
Airport distance calculator
Flying to Chilton County Airport? Find the distance to fly.

From to 02A

Sunrise and sunset
Times for 01-Feb-2023
 Local
(UTC-6)
 Zulu
(UTC)
Morning civil twilight06:1712:17
Sunrise06:4312:43
Sunset17:1823:18
Evening civil twilight17:4423:44

Current date and time
Zulu (UTC)  01-Feb-2023 13:34:14
Local (UTC-6)  01-Feb-2023 07:34:14
 
METAR
KEET 
22nm NW 
011310Z AUTO 33005KT 1 1/2SM BR OVC003 06/05 A3025 RMK AO2 T00610050
KSCD 
25nm NE 
011315Z AUTO 00000KT 2 1/2SM BR OVC004 07/07 A3025 RMK AO2 T00680066
K1A9 
25nm S 
011315Z AUTO 00000KT 10SM OVC004 A3024 RMK AO2
KMXF 
32nm SE 
011255Z AUTO 31006KT 10SM OVC005 10/08 A3022 RMK AO2 SLP236 T01020080
KEKY 
32nm NW 
011256Z AUTO 36004KT 1/2SM FG OVC002 04/ A3026 RMK AO2 SLP095 T0044 RVRNO
KALX 
32nm E 
011315Z AUTO 32004KT 2SM BR OVC003 10/10 A3023 RMK AO2 VIS 1 3/4V4 T00950095
KMGM 
35nm S 
011253Z 33006KT 3SM BR BKN004 OVC013 11/10 A3023 RMK AO2 SLP237 T01110100
KSEM 
36nm SW 
011315Z AUTO 30005KT 1 1/4SM -RA OVC003 09/09 A3025 RMK AO2
TAF
KEET 
22nm NW 
011140Z 0112/0212 33006KT 2SM -DZ BR OVC002 TEMPO 0112/0115 3SM BR OVC004 FM011500 35005KT P6SM OVC006 FM011800 33006KT P6SM OVC016 FM020400 00000KT P6SM OVC012 PROB30 0206/0209 4SM -SHRA BR OVC009 FM020900 VRB03KT 6SM -SHRA BR OVC008
NOTAMs
Click for the latest NOTAMs
NOTAMs are issued by the DoD/FAA and will open in a separate window not controlled by AirNav.

 

 
 

FBO, Fuel Providers, and Aircraft Ground Support

  
 Business Name 
 
 Contact 
 
 Services / Description 
 
Fuel Prices
 
Comments
  
B&G Flying Service, Inc. 205-755-8913
[email]
Airport management, Aviation fuel, Aircraft parking (ramp or tiedown), Passenger terminal and lounge, Flight training, Aerial tours / aerial sightseeing, ...
 
Courtesy car  
 
More info about B&G Flying Service, Inc.
Phillips 66
100LL Jet A
FS --- $5.70 
SS $5.90 $5.40 
 Updated 26-Jan-2023
 
   write
FS=Full service
SS=Self service
Update Fuel Prices
 

Would you like to see your business listed on this page?

 If your business provides an interesting product or service to pilots, flight crews, aircraft, or users of the Chilton County Airport, you should consider listing it here.  To start the listing process, click on the button below
 
Add a business
 

Other Pages about Chilton County Airport

Update a link
 
Copyright © AirNav, LLC. All rights reserved. Privacy Policy  Contact